createdAt,value
2019-03-24T00:01:41.368Z,5.91
2019-03-24T00:07:01.788Z,5.68
2019-03-24T00:12:23.981Z,5.48
2019-03-24T00:17:45.952Z,5.35
2019-03-24T00:23:08.403Z,5.23
2019-03-24T00:28:31.463Z,4.84
2019-03-24T00:33:53.279Z,4.73
2019-03-24T00:39:15.566Z,4.64
2019-03-24T00:44:37.112Z,4.43
2019-03-24T00:49:58.626Z,4.36
2019-03-24T00:55:20.541Z,4.41
2019-03-24T01:00:45.502Z,4.41
2019-03-24T01:06:07.569Z,4.29
2019-03-24T01:11:30.656Z,4.28
2019-03-24T01:16:52.062Z,4.30
2019-03-24T01:22:14.032Z,4.27
2019-03-24T01:27:35.830Z,4.30
2019-03-24T01:32:57.314Z,4.29
2019-03-24T01:38:19.589Z,4.34
2019-03-24T01:43:41.466Z,4.28
2019-03-24T01:49:03.544Z,4.24
2019-03-24T01:54:25.201Z,4.21
2019-03-24T01:59:47.308Z,4.12
2019-03-24T02:05:10.213Z,4.11
2019-03-24T02:10:33.919Z,4.16
2019-03-24T02:15:55.646Z,4.09
2019-03-24T02:21:17.425Z,4.06
2019-03-24T02:26:39.490Z,3.85
2019-03-24T02:32:01.384Z,3.87
2019-03-24T02:37:23.226Z,3.90
2019-03-24T02:42:47.348Z,3.82
2019-03-24T02:48:09.739Z,3.74
2019-03-24T02:53:31.276Z,3.80
2019-03-24T02:58:53.152Z,3.69
2019-03-24T03:04:15.358Z,3.78
2019-03-24T03:09:37.289Z,3.66
2019-03-24T03:14:59.388Z,3.60
2019-03-24T03:20:21.203Z,3.58
2019-03-24T03:25:42.928Z,3.52
2019-03-24T03:31:04.740Z,3.48
2019-03-24T03:36:26.843Z,3.49
2019-03-24T03:41:49.415Z,3.52
2019-03-24T03:47:11.151Z,3.59
2019-03-24T03:52:33.463Z,3.65
2019-03-24T03:57:55.457Z,3.71
2019-03-24T04:03:18.725Z,3.77
2019-03-24T04:08:40.871Z,3.72
2019-03-24T04:14:02.985Z,3.79
2019-03-24T04:19:25.313Z,3.90
2019-03-24T04:24:48.584Z,3.92
2019-03-24T04:30:10.879Z,3.90
2019-03-24T04:35:33.361Z,3.92
2019-03-24T04:40:56.438Z,3.96
2019-03-24T04:46:18.181Z,3.91
2019-03-24T04:51:39.898Z,3.99
2019-03-24T04:57:01.818Z,4.24
2019-03-24T05:02:25.978Z,4.63
2019-03-24T05:07:48.358Z,4.87
2019-03-24T05:13:10.367Z,4.89
2019-03-24T05:18:31.916Z,5.04
2019-03-24T05:23:55.769Z,5.18
2019-03-24T05:29:17.425Z,5.36
2019-03-24T05:34:41.865Z,5.42
2019-03-24T05:40:06.585Z,5.44
2019-03-24T05:45:29.805Z,5.69
2019-03-24T05:50:52.820Z,5.77
2019-03-24T05:56:16.618Z,5.96
2019-03-24T06:01:50.327Z,6.18
2019-03-24T06:07:11.845Z,6.36
2019-03-24T06:12:34.729Z,6.50
2019-03-24T06:17:56.407Z,6.77
2019-03-24T06:23:17.990Z,6.98
2019-03-24T06:28:39.521Z,7.40
2019-03-24T06:34:01.428Z,7.66
2019-03-24T06:39:23.579Z,8.00
2019-03-24T06:44:45.079Z,8.35
2019-03-24T06:50:09.221Z,8.67
2019-03-24T06:55:32.242Z,9.14
2019-03-24T07:00:53.657Z,9.66
2019-03-24T07:06:15.686Z,9.97
2019-03-24T07:11:37.480Z,10.18
2019-03-24T07:16:59.584Z,10.39
2019-03-24T07:22:22.163Z,10.63
2019-03-24T07:27:45.293Z,11.39
2019-03-24T07:33:08.453Z,11.39
2019-03-24T07:38:30.452Z,11.35
2019-03-24T07:43:52.270Z,11.30
2019-03-24T07:49:19.579Z,11.35
2019-03-24T07:54:46.832Z,11.40
2019-03-24T08:07:16.876Z,11.66
2019-03-24T08:12:38.587Z,12.22
2019-03-24T08:18:01.135Z,12.14
2019-03-24T08:23:22.696Z,12.46
2019-03-24T08:28:44.842Z,12.27
2019-03-24T08:34:06.577Z,12.51
2019-03-24T08:39:28.189Z,12.53
2019-03-24T08:44:49.808Z,12.49
2019-03-24T08:50:11.764Z,12.85
2019-03-24T08:55:33.961Z,12.96
2019-03-24T09:00:55.838Z,13.07
2019-03-24T09:06:17.601Z,13.04
2019-03-24T09:11:39.183Z,13.05
2019-03-24T09:17:00.800Z,13.29
2019-03-24T09:22:22.630Z,13.46
2019-03-24T09:27:44.310Z,13.59
2019-03-24T09:33:06.789Z,13.58
2019-03-24T09:38:28.469Z,13.88
2019-03-24T09:43:50.426Z,13.74
2019-03-24T09:49:13.309Z,13.64
2019-03-24T09:54:35.032Z,13.48
2019-03-24T09:59:56.876Z,13.55
2019-03-24T10:05:18.787Z,13.76
2019-03-24T10:10:40.941Z,13.70
2019-03-24T10:16:02.869Z,13.66
2019-03-24T10:21:24.588Z,13.98
2019-03-24T10:26:46.421Z,14.23
2019-03-24T10:32:11.319Z,14.30
2019-03-24T10:37:33.257Z,14.45
2019-03-24T10:42:55.370Z,14.73
2019-03-24T10:48:17.022Z,14.59
2019-03-24T10:53:39.203Z,14.77
2019-03-24T10:59:01.977Z,14.78
2019-03-24T11:04:24.152Z,14.90
2019-03-24T11:09:46.276Z,14.86
2019-03-24T11:15:09.573Z,14.92
2019-03-24T11:20:32.282Z,15.00
2019-03-24T11:25:54.384Z,15.43
2019-03-24T11:31:16.488Z,15.21
2019-03-24T11:36:38.697Z,15.50
2019-03-24T11:42:00.336Z,15.59
2019-03-24T11:47:26.841Z,15.47
2019-03-24T11:52:46.659Z,15.46
2019-03-24T11:58:08.401Z,15.61
2019-03-24T12:03:30.202Z,15.78
2019-03-24T12:08:51.725Z,15.62
2019-03-24T12:14:14.047Z,15.63
2019-03-24T12:19:35.956Z,15.93
2019-03-24T12:24:57.571Z,15.88
2019-03-24T12:30:19.249Z,16.02
2019-03-24T12:35:41.443Z,16.20
2019-03-24T12:41:03.413Z,16.04
2019-03-24T12:46:25.266Z,16.19
2019-03-24T12:51:47.066Z,16.55
2019-03-24T12:57:08.817Z,16.65
2019-03-24T13:02:30.617Z,16.42
2019-03-24T13:08:14.177Z,16.37
2019-03-24T13:13:36.128Z,16.30
2019-03-24T13:18:57.755Z,16.33
2019-03-24T13:24:19.576Z,16.28
2019-03-24T13:29:41.343Z,16.30
2019-03-24T13:35:03.711Z,16.53
2019-03-24T13:40:25.753Z,16.57
2019-03-24T13:45:47.590Z,16.35
2019-03-24T13:51:09.222Z,16.36
2019-03-24T13:56:31.198Z,16.52
2019-03-24T14:01:52.666Z,16.66
2019-03-24T14:07:14.551Z,16.62
2019-03-24T14:12:36.192Z,16.59
2019-03-24T14:17:57.876Z,16.58
2019-03-24T14:23:19.461Z,16.57
2019-03-24T14:28:41.205Z,16.42
2019-03-24T14:34:03.195Z,16.43
2019-03-24T14:39:24.728Z,16.38
2019-03-24T14:44:46.693Z,16.25
2019-03-24T14:50:08.379Z,16.17
2019-03-24T14:55:30.023Z,16.15
2019-03-24T15:00:52.015Z,16.05
2019-03-24T15:06:14.153Z,16.03
2019-03-24T15:11:38.936Z,15.96
2019-03-24T15:17:03.126Z,15.92
2019-03-24T15:22:24.780Z,15.87
2019-03-24T15:27:46.312Z,15.80
2019-03-24T15:33:07.904Z,15.69
2019-03-24T15:38:30.044Z,15.62
2019-03-24T15:43:52.510Z,15.61
2019-03-24T15:49:14.231Z,15.49
2019-03-24T15:54:37.893Z,15.37
2019-03-24T16:00:00.056Z,15.23
2019-03-24T16:05:21.676Z,15.08
2019-03-24T16:10:43.641Z,14.96
2019-03-24T16:16:05.260Z,14.89
2019-03-24T16:21:30.135Z,14.76
2019-03-24T16:26:51.594Z,14.66
2019-03-24T16:32:13.507Z,14.51
2019-03-24T16:37:35.968Z,14.36
2019-03-24T16:42:58.780Z,14.17
2019-03-24T16:48:20.325Z,13.66
2019-03-24T16:53:42.194Z,12.72
2019-03-24T16:59:03.891Z,12.23
2019-03-24T17:04:25.681Z,11.67
2019-03-24T17:09:47.197Z,11.32
2019-03-24T17:15:09.633Z,11.08
2019-03-24T17:20:33.391Z,10.65
2019-03-24T17:25:55.379Z,10.59
2019-03-24T17:31:18.899Z,10.51
2019-03-24T17:36:40.982Z,10.41
2019-03-24T17:42:04.673Z,10.13
2019-03-24T17:47:27.551Z,9.97
2019-03-24T17:52:51.400Z,9.64
2019-03-24T17:58:13.444Z,9.46
2019-03-24T18:03:35.718Z,9.16
2019-03-24T18:08:58.256Z,9.13
2019-03-24T18:14:20.438Z,8.93
2019-03-24T18:19:43.251Z,8.62
2019-03-24T18:25:08.010Z,8.57
2019-03-24T18:30:40.817Z,8.58
2019-03-24T18:36:02.999Z,8.40
2019-03-24T18:42:09.801Z,8.32
2019-03-24T18:48:29.801Z,8.23
2019-03-24T18:54:51.323Z,8.13
2019-03-24T19:33:57.994Z,6.98
2019-03-24T19:40:26.614Z,6.98
2019-03-24T20:19:58.609Z,6.76
2019-03-24T21:12:15.937Z,5.42
2019-03-24T21:17:40.197Z,6.23
2019-03-24T22:09:28.935Z,5.66
2019-03-24T22:15:56.593Z,5.59
